createdAt,value
2019-02-17T00:00:59.385Z,9.47
2019-02-17T00:03:26.047Z,9.48
2019-02-17T00:05:52.736Z,9.45
2019-02-17T00:08:19.449Z,9.49
2019-02-17T00:10:46.376Z,9.56
2019-02-17T00:13:13.903Z,9.47
2019-02-17T00:15:40.799Z,9.53
2019-02-17T00:18:07.627Z,9.53
2019-02-17T00:20:35.128Z,9.56
2019-02-17T00:23:02.241Z,9.51
2019-02-17T00:25:29.535Z,9.53
2019-02-17T00:27:56.798Z,9.57
2019-02-17T00:30:24.132Z,9.52
2019-02-17T00:32:51.404Z,9.55
2019-02-17T00:35:18.700Z,9.56
2019-02-17T00:37:46.825Z,9.52
2019-02-17T00:40:14.329Z,9.56
2019-02-17T00:42:41.013Z,9.50
2019-02-17T00:45:08.518Z,9.51
2019-02-17T00:47:36.368Z,9.56
2019-02-17T00:50:04.583Z,9.52
2019-02-17T00:52:32.067Z,9.53
2019-02-17T00:55:00.041Z,9.58
2019-02-17T00:57:27.918Z,9.58
2019-02-17T00:59:54.988Z,9.54
2019-02-17T01:02:23.073Z,9.55
2019-02-17T01:04:50.804Z,9.53
2019-02-17T01:07:17.610Z,9.52
2019-02-17T01:09:45.018Z,9.53
2019-02-17T01:12:12.258Z,9.56
2019-02-17T01:14:39.187Z,9.55
2019-02-17T01:17:06.234Z,9.58
2019-02-17T01:19:34.525Z,9.60
2019-02-17T01:22:01.485Z,9.64
2019-02-17T01:24:29.018Z,9.67
2019-02-17T01:26:55.723Z,9.70
2019-02-17T01:29:54.871Z,9.72
2019-02-17T01:32:50.143Z,9.74
2019-02-17T01:35:15.677Z,9.75
2019-02-17T01:37:42.389Z,9.74
2019-02-17T01:40:10.055Z,9.77
2019-02-17T01:42:36.865Z,9.79
2019-02-17T01:45:04.879Z,9.80
2019-02-17T01:47:32.551Z,9.83
2019-02-17T01:49:59.780Z,9.76
2019-02-17T01:52:27.087Z,9.82
2019-02-17T01:54:54.622Z,9.83
2019-02-17T01:57:21.874Z,9.86
2019-02-17T01:59:48.823Z,9.91
2019-02-17T02:02:16.272Z,9.87
2019-02-17T02:04:43.070Z,9.89
2019-02-17T02:07:10.245Z,9.83
2019-02-17T02:09:37.290Z,9.85
2019-02-17T02:12:04.430Z,9.85
2019-02-17T02:14:31.723Z,9.87
2019-02-17T02:16:58.772Z,9.91
2019-02-17T02:19:25.535Z,9.91
2019-02-17T02:21:52.856Z,9.91
2019-02-17T02:24:19.546Z,9.90
2019-02-17T02:26:46.303Z,9.93
2019-02-17T02:29:13.357Z,9.96
2019-02-17T02:31:40.515Z,9.94
2019-02-17T02:34:07.991Z,9.92
2019-02-17T02:36:35.298Z,9.95
2019-02-17T02:39:03.716Z,10.02
2019-02-17T02:41:34.945Z,10.07
2019-02-17T02:44:01.029Z,10.05
2019-02-17T02:46:28.422Z,10.04
2019-02-17T02:48:57.951Z,10.08
2019-02-17T02:51:24.741Z,10.08
2019-02-17T02:53:51.668Z,10.08
2019-02-17T02:56:18.356Z,10.07
2019-02-17T02:58:45.033Z,10.08
2019-02-17T03:01:12.453Z,10.10
2019-02-17T03:03:39.918Z,10.09
2019-02-17T03:06:14.729Z,10.12
2019-02-17T03:08:41.984Z,10.11
2019-02-17T03:11:08.921Z,10.11
2019-02-17T03:13:36.125Z,10.10
2019-02-17T03:16:02.914Z,10.10
2019-02-17T03:18:31.025Z,10.04
2019-02-17T03:20:58.269Z,9.89
2019-02-17T03:23:24.961Z,9.76
2019-02-17T03:25:51.982Z,9.70
2019-02-17T03:28:19.495Z,9.71
2019-02-17T03:30:46.673Z,9.61
2019-02-17T03:33:13.903Z,9.50
2019-02-17T03:35:41.049Z,9.44
2019-02-17T03:38:07.997Z,9.37
2019-02-17T03:40:34.797Z,9.32
2019-02-17T03:43:02.036Z,9.31
2019-02-17T03:45:29.480Z,9.30
2019-02-17T03:47:56.768Z,9.30
2019-02-17T03:50:23.862Z,9.25
2019-02-17T03:52:50.680Z,9.21
2019-02-17T03:55:19.134Z,9.14
2019-02-17T03:57:46.058Z,9.17
2019-02-17T04:00:16.856Z,9.20
2019-02-17T04:02:43.269Z,9.20
2019-02-17T04:05:10.633Z,9.22
2019-02-17T04:07:37.669Z,9.19
2019-02-17T04:10:05.248Z,9.24
2019-02-17T04:12:32.532Z,9.15
2019-02-17T04:14:59.469Z,9.16
2019-02-17T04:17:26.142Z,9.13
2019-02-17T04:19:53.506Z,9.16
2019-02-17T04:22:21.309Z,9.24
2019-02-17T04:24:48.325Z,9.23
2019-02-17T04:27:15.416Z,9.21
2019-02-17T04:29:42.858Z,9.25
2019-02-17T04:32:10.522Z,9.22
2019-02-17T04:34:38.151Z,9.19
2019-02-17T04:37:05.207Z,9.24
2019-02-17T04:39:32.879Z,9.27
2019-02-17T04:41:59.557Z,9.19
2019-02-17T04:44:27.610Z,9.22
2019-02-17T04:46:55.353Z,9.23
2019-02-17T04:49:22.922Z,9.27
2019-02-17T04:51:50.853Z,9.26
2019-02-17T04:54:17.550Z,9.23
2019-02-17T04:56:44.733Z,9.23
2019-02-17T04:59:12.966Z,9.18
2019-02-17T05:01:40.039Z,9.22
2019-02-17T05:04:07.534Z,9.17
2019-02-17T05:06:34.437Z,9.18
2019-02-17T05:09:01.729Z,9.21
2019-02-17T05:11:30.915Z,9.13
2019-02-17T05:13:58.117Z,9.15
2019-02-17T05:16:25.586Z,9.19
2019-02-17T05:18:52.806Z,9.15
2019-02-17T05:21:19.860Z,9.14
2019-02-17T05:23:48.517Z,9.19
2019-02-17T05:26:15.613Z,9.20
2019-02-17T05:28:42.390Z,9.16
2019-02-17T05:31:09.978Z,9.11
2019-02-17T05:33:36.646Z,9.03
2019-02-17T05:36:03.384Z,9.00
2019-02-17T05:38:30.322Z,8.87
2019-02-17T05:40:57.429Z,8.92
2019-02-17T05:43:24.774Z,8.73
2019-02-17T05:45:52.163Z,8.79
2019-02-17T05:48:18.948Z,8.73
2019-02-17T05:50:45.623Z,8.62
2019-02-17T05:53:12.889Z,8.72
2019-02-17T05:55:40.870Z,8.69
2019-02-17T05:58:08.158Z,8.66
2019-02-17T06:00:37.007Z,8.62
2019-02-17T06:03:03.777Z,8.56
2019-02-17T06:05:31.098Z,8.57
2019-02-17T06:07:59.023Z,8.57
2019-02-17T06:10:26.997Z,8.49
2019-02-17T06:12:53.776Z,8.56
2019-02-17T06:15:20.748Z,8.48
2019-02-17T06:17:47.430Z,8.53
2019-02-17T06:20:14.722Z,8.63
2019-02-17T06:22:42.508Z,8.62
2019-02-17T06:25:09.810Z,8.43
2019-02-17T06:27:37.493Z,8.49
2019-02-17T06:30:04.560Z,8.62
2019-02-17T06:32:31.797Z,8.52
2019-02-17T06:34:59.008Z,8.42
2019-02-17T06:37:25.983Z,8.33
2019-02-17T06:39:53.019Z,8.51
2019-02-17T06:42:20.169Z,8.45
2019-02-17T06:44:47.960Z,8.22
2019-02-17T06:47:19.914Z,8.05
2019-02-17T06:49:47.331Z,7.84
2019-02-17T06:52:14.929Z,7.87
2019-02-17T06:54:43.763Z,7.83
2019-02-17T06:57:21.206Z,7.70
2019-02-17T06:59:50.456Z,7.54
2019-02-17T07:02:17.738Z,7.43
2019-02-17T07:05:22.925Z,7.41
2019-02-17T07:07:50.246Z,7.37
2019-02-17T07:10:17.310Z,7.16
2019-02-17T07:12:44.349Z,7.25
2019-02-17T07:15:11.619Z,7.25
2019-02-17T07:17:38.779Z,7.32
2019-02-17T07:20:05.703Z,7.21
2019-02-17T07:22:33.242Z,7.31
2019-02-17T07:25:00.906Z,7.45
2019-02-17T07:27:27.693Z,7.37
2019-02-17T07:29:55.022Z,7.39
2019-02-17T07:32:21.710Z,7.48
2019-02-17T07:34:48.904Z,7.45
2019-02-17T07:37:18.780Z,7.39
2019-02-17T07:39:45.863Z,7.50
2019-02-17T07:42:13.243Z,7.59
2019-02-17T07:44:40.644Z,7.67
2019-02-17T07:47:07.283Z,7.71
2019-02-17T07:49:34.068Z,7.65
2019-02-17T07:52:01.733Z,7.62
2019-02-17T07:54:28.824Z,7.82
2019-02-17T07:56:56.039Z,7.65
2019-02-17T07:59:23.686Z,7.68
2019-02-17T08:01:50.914Z,7.38
2019-02-17T08:04:17.593Z,7.76
2019-02-17T08:06:44.609Z,7.80
2019-02-17T08:09:12.569Z,7.86
2019-02-17T08:11:39.679Z,7.83
2019-02-17T08:14:06.586Z,7.84
2019-02-17T08:16:33.516Z,7.99
2019-02-17T08:19:01.157Z,7.82
2019-02-17T08:21:28.288Z,7.89
2019-02-17T08:23:56.020Z,7.86
2019-02-17T08:26:23.453Z,7.97
2019-02-17T08:28:50.160Z,8.08
2019-02-17T08:31:17.332Z,8.14
2019-02-17T08:33:44.023Z,8.02
2019-02-17T08:36:11.078Z,7.93
2019-02-17T08:38:38.984Z,7.84
2019-02-17T08:41:05.793Z,7.82
2019-02-17T08:43:33.285Z,7.82
2019-02-17T08:46:00.568Z,7.77
2019-02-17T08:48:30.337Z,7.96
2019-02-17T08:50:58.111Z,8.07
2019-02-17T08:53:25.160Z,8.36
2019-02-17T08:55:52.921Z,8.34
2019-02-17T08:58:20.172Z,8.57
2019-02-17T09:00:46.850Z,8.52
2019-02-17T09:03:15.207Z,8.70
2019-02-17T09:05:44.412Z,8.77
2019-02-17T09:08:11.387Z,8.91
2019-02-17T09:10:39.090Z,9.03
2019-02-17T09:13:05.862Z,9.33
2019-02-17T09:15:33.087Z,9.16
2019-02-17T09:18:01.066Z,9.68
2019-02-17T09:20:28.589Z,9.55
2019-02-17T09:22:56.022Z,9.45
2019-02-17T09:25:22.904Z,9.51
2019-02-17T09:27:50.165Z,10.10
2019-02-17T09:30:17.481Z,10.17
2019-02-17T09:32:45.195Z,10.28
2019-02-17T09:35:11.862Z,10.30
2019-02-17T09:37:38.932Z,10.28
2019-02-17T09:40:08.178Z,10.18
2019-02-17T09:42:35.428Z,10.24
2019-02-17T09:45:03.183Z,10.37
2019-02-17T09:47:30.238Z,10.53
2019-02-17T09:49:57.434Z,10.73
2019-02-17T09:52:24.247Z,10.74
2019-02-17T09:54:51.731Z,10.71
2019-02-17T09:57:18.753Z,10.57
2019-02-17T09:59:46.030Z,10.57
2019-02-17T10:02:13.002Z,10.65
2019-02-17T10:04:39.934Z,11.23
2019-02-17T10:07:06.616Z,11.23
2019-02-17T10:09:33.864Z,11.10
2019-02-17T10:12:01.442Z,11.19
2019-02-17T10:14:28.710Z,11.19
2019-02-17T10:16:55.581Z,11.47
2019-02-17T10:19:22.549Z,11.47
2019-02-17T10:21:49.744Z,11.45
2019-02-17T10:24:16.426Z,11.59
2019-02-17T10:26:43.507Z,11.59
2019-02-17T10:29:10.813Z,11.61
2019-02-17T10:31:38.691Z,11.61
2019-02-17T10:34:06.029Z,11.59
2019-02-17T10:36:32.726Z,11.40
2019-02-17T10:39:00.480Z,11.57
2019-02-17T10:41:29.088Z,11.65
2019-02-17T10:43:56.024Z,11.69
2019-02-17T10:46:24.071Z,11.84
2019-02-17T10:48:50.774Z,11.84
2019-02-17T10:51:17.457Z,12.16
2019-02-17T10:53:45.223Z,12.16
2019-02-17T10:56:12.558Z,12.34
2019-02-17T10:58:39.881Z,12.33
2019-02-17T11:01:06.694Z,12.61
2019-02-17T11:03:34.039Z,12.37
2019-02-17T11:06:01.257Z,12.42
2019-02-17T11:08:27.938Z,12.41
2019-02-17T11:10:56.039Z,12.57
2019-02-17T11:13:24.234Z,12.22
2019-02-17T11:15:51.263Z,12.32
2019-02-17T11:18:18.509Z,12.37
2019-02-17T11:20:46.869Z,12.61
2019-02-17T11:23:14.028Z,12.70
2019-02-17T11:25:41.379Z,12.79
2019-02-17T11:28:08.682Z,12.90
2019-02-17T11:30:35.693Z,12.93
2019-02-17T11:33:02.674Z,12.80
2019-02-17T11:35:30.220Z,12.72
2019-02-17T11:37:57.535Z,13.08
2019-02-17T11:40:25.354Z,13.21
2019-02-17T11:42:52.946Z,13.01
2019-02-17T11:45:20.065Z,12.91
2019-02-17T11:47:47.331Z,12.97
2019-02-17T11:50:15.824Z,13.23
2019-02-17T11:52:42.647Z,13.54
2019-02-17T11:55:10.587Z,13.31
2019-02-17T11:57:38.978Z,13.06
2019-02-17T12:00:12.701Z,13.33
2019-02-17T12:02:39.935Z,13.27
2019-02-17T12:05:08.599Z,13.34
2019-02-17T12:07:38.938Z,13.29
2019-02-17T12:10:06.553Z,13.74
2019-02-17T12:12:33.345Z,13.71
2019-02-17T12:15:00.393Z,13.70
2019-02-17T12:17:28.364Z,13.71
2019-02-17T12:20:01.941Z,13.46
2019-02-17T12:22:40.669Z,13.91
2019-02-17T12:25:17.832Z,14.10
2019-02-17T12:27:51.869Z,14.20
2019-02-17T12:30:21.652Z,14.10
2019-02-17T12:32:48.442Z,14.38
2019-02-17T12:35:15.686Z,14.47
2019-02-17T12:37:42.641Z,14.42
2019-02-17T12:40:10.917Z,14.39
2019-02-17T12:42:38.098Z,14.63
2019-02-17T12:45:08.705Z,14.68
2019-02-17T12:47:36.645Z,15.12
2019-02-17T12:50:05.959Z,15.22
2019-02-17T12:52:32.895Z,15.08
2019-02-17T12:55:00.366Z,15.02
2019-02-17T12:57:27.529Z,15.36
2019-02-17T12:59:55.065Z,15.08
2019-02-17T13:02:23.504Z,14.83
2019-02-17T13:04:50.195Z,14.90
2019-02-17T13:07:17.221Z,15.71
2019-02-17T13:09:44.388Z,16.24
2019-02-17T13:12:11.941Z,15.91
2019-02-17T13:14:40.618Z,16.64
2019-02-17T13:17:08.067Z,17.46
2019-02-17T13:19:34.844Z,18.03
2019-02-17T13:22:01.815Z,17.27
2019-02-17T13:24:28.902Z,17.13
2019-02-17T13:26:56.766Z,16.67
2019-02-17T13:29:24.876Z,16.79
2019-02-17T13:31:52.094Z,16.74
2019-02-17T13:34:19.171Z,17.71
2019-02-17T13:36:46.407Z,17.97
2019-02-17T13:39:13.586Z,18.53
2019-02-17T13:41:40.793Z,18.54
2019-02-17T13:44:08.406Z,18.73
2019-02-17T13:46:35.645Z,18.66
2019-02-17T13:49:03.577Z,18.60
2019-02-17T13:51:30.896Z,18.37
2019-02-17T13:53:59.225Z,19.98
2019-02-17T13:56:26.366Z,19.78
2019-02-17T13:58:53.682Z,17.95
2019-02-17T14:01:20.977Z,18.50
2019-02-17T14:03:49.396Z,19.08
2019-02-17T14:06:16.341Z,19.42
2019-02-17T14:08:43.537Z,19.20
2019-02-17T14:11:10.585Z,20.44
2019-02-17T14:13:37.630Z,20.05
2019-02-17T14:16:04.790Z,20.18
2019-02-17T14:18:32.051Z,20.26
2019-02-17T14:20:58.818Z,20.87
2019-02-17T14:23:26.449Z,20.58
2019-02-17T14:25:53.915Z,20.01
2019-02-17T14:28:20.617Z,20.54
2019-02-17T14:30:48.023Z,21.54
2019-02-17T14:33:15.471Z,21.96
2019-02-17T14:35:42.137Z,22.01
2019-02-17T14:38:09.353Z,21.31
2019-02-17T14:40:36.482Z,21.50
2019-02-17T14:43:03.289Z,20.41
2019-02-17T14:45:31.281Z,20.99
2019-02-17T14:47:58.330Z,20.84
2019-02-17T14:50:25.261Z,20.41
2019-02-17T14:52:52.546Z,20.63
2019-02-17T14:55:19.913Z,20.57
2019-02-17T14:57:47.030Z,20.03
2019-02-17T15:00:15.216Z,19.37
2019-02-17T15:02:42.557Z,18.94
2019-02-17T15:05:10.237Z,18.87
2019-02-17T15:07:37.046Z,18.39
2019-02-17T15:10:04.750Z,18.11
2019-02-17T15:12:31.879Z,17.98
2019-02-17T15:14:59.699Z,17.77
2019-02-17T15:17:26.392Z,17.61
2019-02-17T15:19:53.637Z,17.05
2019-02-17T15:22:20.583Z,17.40
2019-02-17T15:24:47.625Z,17.00
2019-02-17T15:27:15.711Z,16.60
2019-02-17T15:29:43.497Z,16.58
2019-02-17T15:32:10.197Z,16.58
2019-02-17T15:34:37.181Z,16.21
2019-02-17T15:37:04.147Z,16.10
2019-02-17T15:39:31.528Z,16.09
2019-02-17T15:41:58.907Z,15.64
2019-02-17T15:44:29.444Z,15.64
2019-02-17T15:46:56.785Z,15.79
2019-02-17T15:49:23.945Z,15.73
2019-02-17T15:51:50.755Z,15.44
2019-02-17T15:54:17.650Z,15.25
2019-02-17T15:56:44.764Z,15.10
2019-02-17T15:59:12.225Z,14.88
2019-02-17T16:01:39.394Z,14.82
2019-02-17T16:04:06.519Z,14.74
2019-02-17T16:06:33.605Z,14.62
2019-02-17T16:09:00.370Z,14.55
2019-02-17T16:11:27.072Z,14.54
2019-02-17T16:13:58.700Z,14.33
2019-02-17T16:16:26.676Z,14.39
2019-02-17T16:18:54.241Z,14.31
2019-02-17T16:21:23.531Z,14.30
2019-02-17T16:23:51.351Z,14.13
2019-02-17T16:26:21.839Z,13.98
2019-02-17T16:28:54.250Z,13.82
2019-02-17T16:31:22.356Z,13.71
2019-02-17T16:33:49.739Z,13.66
2019-02-17T16:36:16.890Z,13.62
2019-02-17T16:38:44.083Z,13.58
2019-02-17T16:41:11.150Z,13.60
2019-02-17T16:43:39.139Z,13.52
2019-02-17T16:46:07.031Z,13.44
2019-02-17T16:48:34.285Z,13.25
2019-02-17T16:51:01.440Z,13.26
2019-02-17T16:53:30.287Z,13.27
2019-02-17T16:55:57.759Z,13.14
2019-02-17T16:58:24.801Z,12.94
2019-02-17T17:00:52.069Z,12.71
2019-02-17T17:03:19.384Z,12.60
2019-02-17T17:05:46.560Z,12.65
2019-02-17T17:08:13.427Z,12.67
2019-02-17T17:10:41.383Z,12.45
2019-02-17T17:13:08.742Z,12.37
2019-02-17T17:15:36.196Z,12.31
2019-02-17T17:18:08.906Z,12.25
2019-02-17T17:20:35.858Z,12.22
2019-02-17T17:23:05.277Z,12.28
2019-02-17T17:25:32.533Z,12.10
2019-02-17T17:28:02.574Z,12.17
2019-02-17T17:30:29.986Z,12.06
2019-02-17T17:32:57.250Z,11.95
2019-02-17T17:35:24.247Z,11.75
2019-02-17T17:37:51.050Z,11.67
2019-02-17T17:40:18.467Z,11.61
2019-02-17T17:42:45.717Z,11.57
2019-02-17T17:45:13.485Z,11.52
2019-02-17T17:47:44.644Z,11.56
2019-02-17T17:50:12.558Z,11.57
2019-02-17T17:52:39.446Z,11.42
2019-02-17T17:55:06.394Z,11.40
2019-02-17T17:57:34.083Z,11.40
2019-02-17T18:00:02.088Z,11.30
2019-02-17T18:02:31.453Z,11.25
2019-02-17T18:05:08.522Z,11.22
2019-02-17T18:07:28.751Z,11.22
2019-02-17T18:09:56.015Z,11.28
2019-02-17T18:12:23.775Z,11.04
2019-02-17T18:14:51.025Z,11.04
2019-02-17T18:17:17.768Z,10.84
2019-02-17T18:19:45.405Z,10.84
2019-02-17T18:22:12.585Z,10.87
2019-02-17T18:24:39.571Z,11.48
2019-02-17T18:27:07.177Z,11.70
2019-02-17T18:29:35.013Z,11.76
2019-02-17T18:32:02.626Z,11.45
2019-02-17T18:34:29.355Z,10.66
2019-02-17T18:36:56.389Z,10.66
2019-02-17T18:39:23.859Z,10.76
2019-02-17T18:41:51.336Z,11.12
2019-02-17T18:44:18.117Z,10.94
2019-02-17T18:46:44.985Z,10.97
2019-02-17T18:49:11.740Z,10.83
2019-02-17T18:51:38.768Z,10.58
2019-02-17T18:54:05.589Z,10.58
2019-02-17T18:56:33.868Z,10.44
2019-02-17T18:59:00.828Z,10.65
2019-02-17T19:01:28.109Z,10.94
2019-02-17T19:03:55.514Z,11.09
2019-02-17T19:06:22.450Z,11.09
2019-02-17T19:08:49.169Z,11.04
2019-02-17T19:11:16.877Z,11.25
2019-02-17T19:13:44.859Z,11.15
2019-02-17T19:16:11.593Z,10.88
2019-02-17T19:18:38.451Z,10.88
2019-02-17T19:21:06.418Z,10.79
2019-02-17T19:23:33.361Z,10.58
2019-02-17T19:26:00.507Z,10.48
2019-02-17T19:28:28.406Z,10.69
2019-02-17T19:30:55.273Z,10.69
2019-02-17T19:33:21.951Z,10.44
2019-02-17T19:35:49.954Z,10.56
2019-02-17T19:38:17.192Z,10.55
2019-02-17T19:40:44.013Z,10.42
2019-02-17T19:43:10.703Z,9.69
2019-02-17T19:45:37.846Z,9.69
2019-02-17T19:48:07.109Z,9.47
2019-02-17T19:50:34.066Z,9.47
2019-02-17T19:53:01.431Z,9.43
2019-02-17T19:55:28.104Z,9.43
2019-02-17T19:57:54.881Z,9.29
2019-02-17T20:00:23.354Z,9.29
2019-02-17T20:03:05.447Z,9.15
2019-02-17T20:05:35.701Z,9.16
2019-02-17T20:08:02.846Z,9.37
2019-02-17T20:10:30.546Z,9.85
2019-02-17T20:12:58.149Z,10.10
2019-02-17T20:15:28.838Z,9.99
2019-02-17T20:17:56.895Z,9.99
2019-02-17T20:20:23.994Z,10.17
2019-02-17T20:22:52.480Z,10.17
2019-02-17T20:25:19.351Z,10.21
2019-02-17T20:27:46.385Z,9.49
2019-02-17T20:30:13.532Z,9.06
2019-02-17T20:32:40.790Z,9.06
2019-02-17T20:35:08.363Z,8.89
2019-02-17T20:37:35.168Z,8.92
2019-02-17T20:40:02.008Z,8.85
2019-02-17T20:42:29.274Z,8.81
2019-02-17T20:44:56.297Z,8.73
2019-02-17T20:47:23.010Z,8.78
2019-02-17T20:49:49.698Z,8.78
2019-02-17T20:52:16.533Z,8.86
2019-02-17T20:54:43.509Z,8.62
2019-02-17T20:57:10.508Z,8.79
2019-02-17T20:59:38.011Z,8.87
2019-02-17T21:02:06.254Z,8.74
2019-02-17T21:04:33.145Z,8.72
2019-02-17T21:07:00.240Z,8.74
2019-02-17T21:09:27.015Z,8.72
2019-02-17T21:11:55.180Z,8.61
2019-02-17T21:14:22.523Z,8.50
2019-02-17T21:16:49.674Z,8.48
2019-02-17T21:19:16.986Z,8.61
2019-02-17T21:21:44.075Z,8.71
2019-02-17T21:24:11.243Z,8.65
2019-02-17T21:26:38.487Z,8.45
2019-02-17T21:29:05.497Z,8.54
2019-02-17T21:31:32.315Z,8.60
2019-02-17T21:33:59.538Z,8.63
2019-02-17T21:36:26.546Z,8.41
2019-02-17T21:38:53.244Z,8.22
2019-02-17T21:41:20.409Z,8.24
2019-02-17T21:43:47.999Z,8.37
2019-02-17T21:46:17.598Z,8.34
2019-02-17T21:48:45.086Z,8.37
2019-02-17T21:51:11.865Z,8.34
2019-02-17T21:53:38.783Z,8.28
2019-02-17T21:56:05.473Z,8.34
2019-02-17T21:58:33.470Z,8.30
2019-02-17T22:01:00.150Z,8.40
2019-02-17T22:03:27.693Z,8.30
2019-02-17T22:05:54.737Z,8.00
2019-02-17T22:08:22.795Z,8.10
2019-02-17T22:10:49.735Z,8.10
2019-02-17T22:13:17.374Z,8.14
2019-02-17T22:15:44.446Z,7.86
2019-02-17T22:18:11.149Z,7.96
2019-02-17T22:20:39.028Z,8.09
2019-02-17T22:23:05.699Z,8.12
2019-02-17T22:25:32.883Z,8.03
2019-02-17T22:27:59.553Z,8.09
2019-02-17T22:30:26.790Z,8.17
2019-02-17T22:32:53.687Z,8.22
2019-02-17T22:35:21.665Z,8.22
2019-02-17T22:37:48.893Z,8.16
2019-02-17T22:40:15.613Z,8.21
2019-02-17T22:42:42.664Z,8.12
2019-02-17T22:45:10.284Z,8.17
2019-02-17T22:47:37.674Z,7.98
2019-02-17T22:50:07.600Z,7.99
2019-02-17T22:52:34.917Z,7.87
2019-02-17T22:55:02.055Z,7.94
2019-02-17T22:57:29.549Z,7.83
2019-02-17T22:59:57.372Z,7.81
2019-02-17T23:02:25.236Z,7.85
2019-02-17T23:04:52.274Z,7.79
2019-02-17T23:07:19.055Z,7.86
2019-02-17T23:09:46.157Z,7.63
2019-02-17T23:12:13.801Z,7.57
2019-02-17T23:14:40.933Z,7.58
2019-02-17T23:17:07.551Z,7.65
2019-02-17T23:19:35.354Z,7.63
2019-02-17T23:22:02.040Z,7.67
2019-02-17T23:24:29.316Z,7.66
2019-02-17T23:26:56.469Z,7.72
2019-02-17T23:29:23.763Z,7.35
2019-02-17T23:31:51.999Z,7.27
2019-02-17T23:34:19.187Z,7.35
2019-02-17T23:36:46.501Z,7.33
2019-02-17T23:39:14.013Z,7.31
2019-02-17T23:41:41.551Z,7.41
2019-02-17T23:44:09.086Z,7.46
2019-02-17T23:46:36.660Z,7.29
2019-02-17T23:49:03.914Z,7.13
2019-02-17T23:51:30.674Z,7.31
2019-02-17T23:53:57.675Z,7.38
2019-02-17T23:56:24.362Z,7.33
2019-02-17T23:58:51.345Z,7.32
